CSL Laurentien — VCJW — position and weather

sailwx.info

Track history (hours):
 
Tides and Currents Weather Stations Pressure Air Temp Water Temp Dewpoint Dewpoint Depression Visibility Wind Speed Wind Dir Waves Ship Positions

CSL Laurentien

ex Louis R. Desmarais

Last reported at 2017-Dec-07 15:53 UTC. Time now 2017-Dec-13 16:57 UTC.
Position N 45°22' W 083°18'.

Length 225 m; draft 7 m.

Type: Cargo ship. MMSI: 316001637.

Date/timePositionNaut miles runAvg speedWind from/ knotsBaromVisibWave heightAir tempDewpointWater temp
2017-Dec-07 15:53N 45°22' W 083°18'911.6
2017-Dec-07 15:04N 45°28' W 083°29'111.9
2017-Dec-07 15:00N 45°28' W 083°30'612.0
2017-Dec-07 14:30N 45°31' W 083°38'612.0
2017-Dec-07 14:00N 45°33' W 083°46'712.1
2017-Dec-07 13:27N 45°36' W 083°55'511.9
2017-Dec-07 13:00N 45°38' W 084°01'611.9
2017-Dec-07 12:30N 45°40' W 084°09'611.5
2017-Dec-07 12:00N 45°42' W 084°17'5 9.9
2017-Dec-07 11:30N 45°41' W 084°24'510.6
2017-Dec-07 11:00N 45°44' W 084°31'2 4.0
2017-Dec-07 10:28N 45°44' W 084°34'0 0.1
2017-Dec-07 09:58N 45°44' W 084°34'0 0.1
2017-Dec-07 09:25N 45°44' W 084°34'0 0.0
2017-Dec-07 08:58N 45°44' W 084°34'0 0.1
2017-Dec-07 08:25N 45°44' W 084°34'0 0.1
2017-Dec-07 07:58N 45°44' W 084°34'0 0.1
2017-Dec-07 07:25N 45°44' W 084°34'0 0.0
2017-Dec-07 06:58N 45°44' W 084°34'0 0.1
2017-Dec-07 06:28N 45°44' W 084°34'0 0.1
2017-Dec-07 05:58N 45°44' W 084°34'0 0.0
2017-Dec-07 05:28N 45°44' W 084°34'0 0.0
2017-Dec-07 04:55N 45°44' W 084°34'0 0.0
2017-Dec-07 04:28N 45°44' W 084°34'0 0.2
2017-Dec-07 03:58N 45°44' W 084°34'0 0.1
2017-Dec-07 03:28N 45°44' W 084°34'0 0.0
2017-Dec-07 02:58N 45°44' W 084°34'0 0.1
2017-Dec-07 02:28N 45°44' W 084°34'0 0.2
2017-Dec-07 01:58N 45°44' W 084°34'0 0.2
2017-Dec-07 01:28N 45°44' W 084°34'0 0.2
2017-Dec-07 00:58N 45°44' W 084°34'0 0.2
2017-Dec-07 00:28N 45°44' W 084°34'0 0.2
2017-Dec-06 23:58N 45°44' W 084°34'0 0.2
2017-Dec-06 23:28N 45°44' W 084°34'0 0.1
2017-Dec-06 22:58N 45°44' W 084°34'0 0.1
2017-Dec-06 22:28N 45°44' W 084°34'0 0.1
2017-Dec-06 21:58N 45°44' W 084°34'0 0.1
2017-Dec-06 21:28N 45°44' W 084°34'0 0.2
2017-Dec-06 20:58N 45°44' W 084°34'  
2017-Dec-03 06:30N 45°44' W 085°60'811.3
2017-Dec-03 05:47N 45°47' W 085°50'311.1
2017-Dec-03 05:31N 45°49' W 085°46'610.9
2017-Dec-03 05:00N 45°52' W 085°39'510.4
2017-Dec-03 04:31N 45°53' W 085°32'611.0
2017-Dec-03 04:01N 45°53' W 085°24'511.0
2017-Dec-03 03:31N 45°52' W 085°16'510.9
2017-Dec-03 03:01N 45°51' W 085°08'611.1
2017-Dec-03 02:31N 45°51' W 085°01'610.8
2017-Dec-03 02:00N 45°50' W 084°53'510.7
2017-Dec-03 01:30N 45°49' W 084°45'510.5
2017-Dec-03 01:01N 45°47' W 084°38'510.8
2017-Dec-03 00:31N 45°44' W 084°32'610.5
2017-Dec-02 23:54N 45°41' W 084°23'1610.9
2017-Dec-02 22:24N 45°36' W 084°01'511.6
2017-Dec-02 22:00N 45°34' W 083°56'611.4
2017-Dec-02 21:30N 45°32' W 083°48'611.5
2017-Dec-02 21:00N 45°29' W 083°41'611.5
2017-Dec-02 20:30N 45°27' W 083°33'611.4
2017-Dec-02 20:00N 45°24' W 083°26'2311.5
2017-Dec-02 18:00N 45°06' W 083°06'   180 / 121018.010.8 6.0
2017-Nov-30 06:00N 42°06' W 081°24'   120 / 161024.010.8 5.0
Track history (hours):
 
Tides and Currents Weather Stations Pressure Air Temp Water Temp Dewpoint Dewpoint Depression Visibility Wind Speed Wind Dir Waves Ship Positions

CSL Laurentien

ex Louis R. Desmarais

Last reported at 2017-Dec-07 15:53 UTC. Time now 2017-Dec-13 16:57 UTC.
Position N 45°22' W 083°18'.

Length 225 m; draft 7 m.

Type: Cargo ship. MMSI: 316001637.

Date/timePositionNaut miles runAvg speedWind from/ knotsBaromVisibWave heightAir tempDewpointWater temp
2017-Dec-07 15:53N 45°22' W 083°18'911.6
2017-Dec-07 15:04N 45°28' W 083°29'111.9
2017-Dec-07 15:00N 45°28' W 083°30'612.0
2017-Dec-07 14:30N 45°31' W 083°38'612.0
2017-Dec-07 14:00N 45°33' W 083°46'712.1
2017-Dec-07 13:27N 45°36' W 083°55'511.9
2017-Dec-07 13:00N 45°38' W 084°01'611.9
2017-Dec-07 12:30N 45°40' W 084°09'611.5
2017-Dec-07 12:00N 45°42' W 084°17'5 9.9
2017-Dec-07 11:30N 45°41' W 084°24'510.6
2017-Dec-07 11:00N 45°44' W 084°31'2 4.0
2017-Dec-07 10:28N 45°44' W 084°34'0 0.1
2017-Dec-07 09:58N 45°44' W 084°34'0 0.1
2017-Dec-07 09:25N 45°44' W 084°34'0 0.0
2017-Dec-07 08:58N 45°44' W 084°34'0 0.1
2017-Dec-07 08:25N 45°44' W 084°34'0 0.1
2017-Dec-07 07:58N 45°44' W 084°34'0 0.1
2017-Dec-07 07:25N 45°44' W 084°34'0 0.0
2017-Dec-07 06:58N 45°44' W 084°34'0 0.1
2017-Dec-07 06:28N 45°44' W 084°34'0 0.1
2017-Dec-07 05:58N 45°44' W 084°34'0 0.0
2017-Dec-07 05:28N 45°44' W 084°34'0 0.0
2017-Dec-07 04:55N 45°44' W 084°34'0 0.0
2017-Dec-07 04:28N 45°44' W 084°34'0 0.2
2017-Dec-07 03:58N 45°44' W 084°34'0 0.1
2017-Dec-07 03:28N 45°44' W 084°34'0 0.0
2017-Dec-07 02:58N 45°44' W 084°34'0 0.1
2017-Dec-07 02:28N 45°44' W 084°34'0 0.2
2017-Dec-07 01:58N 45°44' W 084°34'0 0.2
2017-Dec-07 01:28N 45°44' W 084°34'0 0.2
2017-Dec-07 00:58N 45°44' W 084°34'0 0.2
2017-Dec-07 00:28N 45°44' W 084°34'0 0.2
2017-Dec-06 23:58N 45°44' W 084°34'0 0.2
2017-Dec-06 23:28N 45°44' W 084°34'0 0.1
2017-Dec-06 22:58N 45°44' W 084°34'0 0.1
2017-Dec-06 22:28N 45°44' W 084°34'0 0.1
2017-Dec-06 21:58N 45°44' W 084°34'0 0.1
2017-Dec-06 21:28N 45°44' W 084°34'0 0.2
2017-Dec-06 20:58N 45°44' W 084°34'  
2017-Dec-03 06:30N 45°44' W 085°60'811.3
2017-Dec-03 05:47N 45°47' W 085°50'311.1
2017-Dec-03 05:31N 45°49' W 085°46'610.9
2017-Dec-03 05:00N 45°52' W 085°39'510.4
2017-Dec-03 04:31N 45°53' W 085°32'611.0
2017-Dec-03 04:01N 45°53' W 085°24'511.0
2017-Dec-03 03:31N 45°52' W 085°16'510.9
2017-Dec-03 03:01N 45°51' W 085°08'611.1
2017-Dec-03 02:31N 45°51' W 085°01'610.8
2017-Dec-03 02:00N 45°50' W 084°53'510.7
2017-Dec-03 01:30N 45°49' W 084°45'510.5
2017-Dec-03 01:01N 45°47' W 084°38'510.8
2017-Dec-03 00:31N 45°44' W 084°32'610.5
2017-Dec-02 23:54N 45°41' W 084°23'1610.9
2017-Dec-02 22:24N 45°36' W 084°01'511.6
2017-Dec-02 22:00N 45°34' W 083°56'611.4
2017-Dec-02 21:30N 45°32' W 083°48'611.5
2017-Dec-02 21:00N 45°29' W 083°41'611.5
2017-Dec-02 20:30N 45°27' W 083°33'611.4
2017-Dec-02 20:00N 45°24' W 083°26'2311.5
2017-Dec-02 18:00N 45°06' W 083°06'   180 / 121018.010.8 6.0
2017-Nov-30 06:00N 42°06' W 081°24'   120 / 161024.010.8 5.0

Dump ship's entire track history